sensor_id;sensor_type;location;lat;lon;timestamp;pressure;altitude;pressure_sealevel;temperature;humidity
60244;BME280;46106;51.468;5.814;2023-04-09T00:00:41;102226.94;;;10.18;100.00
60244;BME280;46106;51.468;5.814;2023-04-09T00:03:06;102219.41;;;10.06;100.00
60244;BME280;46106;51.468;5.814;2023-04-09T00:05:32;102230.13;;;10.10;100.00
60244;BME280;46106;51.468;5.814;2023-04-09T00:07:57;102238.72;;;10.20;100.00
60244;BME280;46106;51.468;5.814;2023-04-09T00:10:23;102232.41;;;10.18;100.00
60244;BME280;46106;51.468;5.814;2023-04-09T00:12:48;102228.63;;;10.21;100.00
60244;BME280;46106;51.468;5.814;2023-04-09T00:15:14;102227.75;;;10.20;100.00
60244;BME280;46106;51.468;5.814;2023-04-09T00:17:40;102228.25;;;10.11;100.00
60244;BME280;46106;51.468;5.814;2023-04-09T00:20:06;102221.44;;;10.02;100.00
60244;BME280;46106;51.468;5.814;2023-04-09T00:22:32;102223.75;;;10.10;100.00
60244;BME280;46106;51.468;5.814;2023-04-09T00:24:57;102222.38;;;10.19;100.00
60244;BME280;46106;51.468;5.814;2023-04-09T00:27:23;102214.13;;;10.03;100.00
60244;BME280;46106;51.468;5.814;2023-04-09T00:29:48;102217.63;;;10.05;100.00
60244;BME280;46106;51.468;5.814;2023-04-09T00:32:13;102216.75;;;10.04;100.00
60244;BME280;46106;51.468;5.814;2023-04-09T00:34:39;102218.19;;;10.11;100.00
60244;BME280;46106;51.468;5.814;2023-04-09T00:37:05;102211.28;;;10.04;100.00
60244;BME280;46106;51.468;5.814;2023-04-09T00:39:30;102209.59;;;10.02;100.00
60244;BME280;46106;51.468;5.814;2023-04-09T00:41:57;102213.94;;;10.06;100.00
60244;BME280;46106;51.468;5.814;2023-04-09T00:44:23;102206.31;;;9.95;100.00
60244;BME280;46106;51.468;5.814;2023-04-09T00:46:49;102206.16;;;9.98;100.00
60244;BME280;46106;51.468;5.814;2023-04-09T00:49:15;102198.94;;;9.97;100.00
60244;BME280;46106;51.468;5.814;2023-04-09T00:51:41;102203.34;;;10.00;100.00
60244;BME280;46106;51.468;5.814;2023-04-09T00:54:08;102188.56;;;9.86;100.00
60244;BME280;46106;51.468;5.814;2023-04-09T00:56:34;102197.06;;;9.98;100.00
60244;BME280;46106;51.468;5.814;2023-04-09T00:59:01;102202.47;;;9.99;100.00
60244;BME280;46106;51.468;5.814;2023-04-09T01:01:26;102196.81;;;10.02;100.00
60244;BME280;46106;51.468;5.814;2023-04-09T01:03:52;102193.94;;;9.88;100.00
60244;BME280;46106;51.468;5.814;2023-04-09T01:06:28;102195.81;;;9.87;100.00
60244;BME280;46106;51.468;5.814;2023-04-09T01:09:34;102190.88;;;9.94;100.00
60244;BME280;46106;51.468;5.814;2023-04-09T01:12:11;102198.09;;;9.95;100.00
60244;BME280;46106;51.468;5.814;2023-04-09T01:15:06;102180.97;;;9.91;100.00
60244;BME280;46106;51.468;5.814;2023-04-09T01:20:08;102177.88;;;9.82;100.00
60244;BME280;46106;51.468;5.814;2023-04-09T01:23:06;102172.06;;;9.88;100.00
60244;BME280;46106;51.468;5.814;2023-04-09T01:26:02;102181.06;;;9.90;100.00
60244;BME280;46106;51.468;5.814;2023-04-09T01:28:45;102178.84;;;9.81;100.00
60244;BME280;46106;51.468;5.814;2023-04-09T01:31:13;102174.81;;;9.88;100.00
60244;BME280;46106;51.468;5.814;2023-04-09T01:33:40;102179.41;;;9.87;100.00
60244;BME280;46106;51.468;5.814;2023-04-09T01:36:06;102175.47;;;9.75;100.00
60244;BME280;46106;51.468;5.814;2023-04-09T01:38:38;102166.22;;;9.78;100.00
60244;BME280;46106;51.468;5.814;2023-04-09T01:41:06;102175.38;;;9.77;100.00
60244;BME280;46106;51.468;5.814;2023-04-09T01:43:33;102164.06;;;9.67;100.00
60244;BME280;46106;51.468;5.814;2023-04-09T01:46:00;102169.91;;;9.77;100.00
60244;BME280;46106;51.468;5.814;2023-04-09T01:48:28;102176.38;;;9.76;100.00
60244;BME280;46106;51.468;5.814;2023-04-09T01:50:54;102171.06;;;9.73;100.00
60244;BME280;46106;51.468;5.814;2023-04-09T01:53:20;102169.19;;;9.73;100.00
60244;BME280;46106;51.468;5.814;2023-04-09T01:55:46;102166.63;;;9.70;100.00
60244;BME280;46106;51.468;5.814;2023-04-09T01:58:12;102167.63;;;9.69;100.00
60244;BME280;46106;51.468;5.814;2023-04-09T02:00:39;102150.97;;;9.56;100.00
60244;BME280;46106;51.468;5.814;2023-04-09T02:03:17;102165.53;;;9.57;100.00
60244;BME280;46106;51.468;5.814;2023-04-09T02:05:52;102139.41;;;9.34;100.00
60244;BME280;46106;51.468;5.814;2023-04-09T02:08:20;102171.50;;;9.48;100.00
60244;BME280;46106;51.468;5.814;2023-04-09T02:10:50;102143.09;;;9.33;100.00
60244;BME280;46106;51.468;5.814;2023-04-09T02:13:18;102169.25;;;9.38;100.00
60244;BME280;46106;51.468;5.814;2023-04-09T02:15:45;102170.06;;;9.23;100.00
60244;BME280;46106;51.468;5.814;2023-04-09T02:18:25;102172.47;;;9.29;100.00
60244;BME280;46106;51.468;5.814;2023-04-09T02:20:54;102179.88;;;9.27;100.00
60244;BME280;46106;51.468;5.814;2023-04-09T02:23:20;102163.78;;;9.21;100.00
60244;BME280;46106;51.468;5.814;2023-04-09T02:25:46;102173.03;;;9.18;100.00
60244;BME280;46106;51.468;5.814;2023-04-09T02:28:12;102172.72;;;9.07;100.00
60244;BME280;46106;51.468;5.814;2023-04-09T02:30:38;102163.38;;;8.94;100.00
60244;BME280;46106;51.468;5.814;2023-04-09T02:33:03;102160.00;;;8.89;100.00
60244;BME280;46106;51.468;5.814;2023-04-09T02:35:28;102159.09;;;8.88;100.00
60244;BME280;46106;51.468;5.814;2023-04-09T02:37:54;102143.34;;;8.76;100.00
60244;BME280;46106;51.468;5.814;2023-04-09T02:40:20;102163.91;;;8.83;100.00
60244;BME280;46106;51.468;5.814;2023-04-09T02:42:45;102163.34;;;8.76;100.00
60244;BME280;46106;51.468;5.814;2023-04-09T02:45:13;102152.72;;;8.70;100.00
60244;BME280;46106;51.468;5.814;2023-04-09T02:47:39;102159.31;;;8.66;100.00
60244;BME280;46106;51.468;5.814;2023-04-09T02:50:05;102159.75;;;8.57;100.00
60244;BME280;46106;51.468;5.814;2023-04-09T02:52:30;102150.63;;;8.58;100.00
60244;BME280;46106;51.468;5.814;2023-04-09T02:54:56;102155.31;;;8.54;100.00
60244;BME280;46106;51.468;5.814;2023-04-09T02:57:21;102145.28;;;8.36;100.00
60244;BME280;46106;51.468;5.814;2023-04-09T02:59:47;102134.38;;;8.36;100.00
60244;BME280;46106;51.468;5.814;2023-04-09T03:02:12;102160.38;;;8.44;100.00
60244;BME280;46106;51.468;5.814;2023-04-09T03:04:38;102156.66;;;8.45;100.00
60244;BME280;46106;51.468;5.814;2023-04-09T03:07:03;102165.44;;;8.33;100.00
60244;BME280;46106;51.468;5.814;2023-04-09T03:09:29;102167.50;;;8.28;100.00
60244;BME280;46106;51.468;5.814;2023-04-09T03:11:55;102168.03;;;8.36;100.00
60244;BME280;46106;51.468;5.814;2023-04-09T03:14:24;102155.69;;;8.27;100.00
60244;BME280;46106;51.468;5.814;2023-04-09T03:16:50;102160.13;;;8.30;100.00
60244;BME280;46106;51.468;5.814;2023-04-09T03:19:15;102151.50;;;8.20;100.00
60244;BME280;46106;51.468;5.814;2023-04-09T03:21:41;102158.13;;;8.15;100.00
60244;BME280;46106;51.468;5.814;2023-04-09T03:24:07;102164.34;;;8.18;100.00
60244;BME280;46106;51.468;5.814;2023-04-09T03:26:33;102143.91;;;8.08;100.00
60244;BME280;46106;51.468;5.814;2023-04-09T03:29:02;102160.06;;;8.13;100.00
60244;BME280;46106;51.468;5.814;2023-04-09T03:31:27;102148.03;;;7.98;100.00
60244;BME280;46106;51.468;5.814;2023-04-09T03:33:53;102157.00;;;8.00;100.00
60244;BME280;46106;51.468;5.814;2023-04-09T03:36:18;102155.47;;;7.94;100.00
60244;BME280;46106;51.468;5.814;2023-04-09T03:38:44;102150.91;;;7.95;100.00
60244;BME280;46106;51.468;5.814;2023-04-09T03:41:10;102145.44;;;7.95;100.00
60244;BME280;46106;51.468;5.814;2023-04-09T03:43:37;102149.88;;;7.97;100.00
60244;BME280;46106;51.468;5.814;2023-04-09T03:46:10;102133.72;;;7.93;100.00
60244;BME280;46106;51.468;5.814;2023-04-09T03:48:39;102137.34;;;7.93;100.00
60244;BME280;46106;51.468;5.814;2023-04-09T03:51:05;102124.56;;;7.75;100.00
60244;BME280;46106;51.468;5.814;2023-04-09T03:53:31;102145.00;;;7.85;100.00
60244;BME280;46106;51.468;5.814;2023-04-09T03:55:56;102136.22;;;7.78;100.00
60244;BME280;46106;51.468;5.814;2023-04-09T03:58:21;102144.31;;;7.80;100.00
60244;BME280;46106;51.468;5.814;2023-04-09T04:00:47;102135.47;;;7.75;100.00
60244;BME280;46106;51.468;5.814;2023-04-09T04:03:13;102147.72;;;7.66;100.00
60244;BME280;46106;51.468;5.814;2023-04-09T04:05:40;102145.84;;;7.66;100.00
60244;BME280;46106;51.468;5.814;2023-04-09T04:08:06;102149.06;;;7.55;100.00
60244;BME280;46106;51.468;5.814;2023-04-09T04:10:33;102149.13;;;7.54;100.00
60244;BME280;46106;51.468;5.814;2023-04-09T04:12:58;102131.28;;;7.47;100.00
60244;BME280;46106;51.468;5.814;2023-04-09T04:15:27;102137.69;;;7.46;100.00
60244;BME280;46106;51.468;5.814;2023-04-09T04:17:53;102133.50;;;7.39;100.00
60244;BME280;46106;51.468;5.814;2023-04-09T04:20:18;102131.94;;;7.33;100.00
60244;BME280;46106;51.468;5.814;2023-04-09T04:22:43;102135.47;;;7.35;100.00
60244;BME280;46106;51.468;5.814;2023-04-09T04:25:09;102125.09;;;7.23;100.00
60244;BME280;46106;51.468;5.814;2023-04-09T04:27:35;102117.56;;;7.09;100.00
60244;BME280;46106;51.468;5.814;2023-04-09T04:30:00;102128.38;;;7.10;100.00
60244;BME280;46106;51.468;5.814;2023-04-09T04:32:26;102139.41;;;7.07;100.00
60244;BME280;46106;51.468;5.814;2023-04-09T04:34:52;102114.75;;;6.90;100.00
60244;BME280;46106;51.468;5.814;2023-04-09T04:37:17;102132.44;;;7.00;100.00
60244;BME280;46106;51.468;5.814;2023-04-09T04:39:43;102129.94;;;6.95;100.00
60244;BME280;46106;51.468;5.814;2023-04-09T04:42:08;102131.16;;;6.88;100.00
60244;BME280;46106;51.468;5.814;2023-04-09T04:44:34;102108.25;;;6.72;100.00
60244;BME280;46106;51.468;5.814;2023-04-09T04:46:59;102127.13;;;6.76;100.00
60244;BME280;46106;51.468;5.814;2023-04-09T04:49:27;102136.16;;;6.77;100.00
60244;BME280;46106;51.468;5.814;2023-04-09T04:51:53;102140.59;;;6.79;100.00
60244;BME280;46106;51.468;5.814;2023-04-09T04:54:18;102140.03;;;6.71;100.00
60244;BME280;46106;51.468;5.814;2023-04-09T04:56:44;102129.34;;;6.67;100.00
60244;BME280;46106;51.468;5.814;2023-04-09T04:59:09;102119.28;;;6.69;100.00
60244;BME280;46106;51.468;5.814;2023-04-09T05:01:35;102134.78;;;6.67;100.00
60244;BME280;46106;51.468;5.814;2023-04-09T05:04:00;102141.09;;;6.67;100.00
60244;BME280;46106;51.468;5.814;2023-04-09T05:06:28;102137.63;;;6.63;100.00
60244;BME280;46106;51.468;5.814;2023-04-09T05:08:54;102143.19;;;6.60;100.00
60244;BME280;46106;51.468;5.814;2023-04-09T05:11:23;102131.56;;;6.57;100.00
60244;BME280;46106;51.468;5.814;2023-04-09T05:13:49;102139.22;;;6.69;100.00
60244;BME280;46106;51.468;5.814;2023-04-09T05:16:18;102135.66;;;6.67;100.00
60244;BME280;46106;51.468;5.814;2023-04-09T05:18:44;102140.16;;;6.68;100.00
60244;BME280;46106;51.468;5.814;2023-04-09T05:21:09;102140.28;;;6.65;100.00
60244;BME280;46106;51.468;5.814;2023-04-09T05:23:35;102146.72;;;6.64;100.00
60244;BME280;46106;51.468;5.814;2023-04-09T05:26:00;102133.41;;;6.56;100.00
60244;BME280;46106;51.468;5.814;2023-04-09T05:28:26;102138.09;;;6.53;100.00
60244;BME280;46106;51.468;5.814;2023-04-09T05:30:51;102139.91;;;6.52;100.00
60244;BME280;46106;51.468;5.814;2023-04-09T05:33:16;102137.19;;;6.52;100.00
60244;BME280;46106;51.468;5.814;2023-04-09T05:35:42;102136.81;;;6.39;100.00
60244;BME280;46106;51.468;5.814;2023-04-09T05:38:07;102124.19;;;6.38;100.00
60244;BME280;46106;51.468;5.814;2023-04-09T05:40:33;102130.63;;;6.36;100.00
60244;BME280;46106;51.468;5.814;2023-04-09T05:42:59;102141.81;;;6.28;100.00
60244;BME280;46106;51.468;5.814;2023-04-09T05:45:25;102114.94;;;6.20;100.00
60244;BME280;46106;51.468;5.814;2023-04-09T05:47:53;102124.66;;;6.26;100.00
60244;BME280;46106;51.468;5.814;2023-04-09T05:50:19;102103.19;;;6.20;100.00
60244;BME280;46106;51.468;5.814;2023-04-09T05:52:44;102121.53;;;6.37;100.00
60244;BME280;46106;51.468;5.814;2023-04-09T05:55:10;102113.75;;;6.50;100.00
60244;BME280;46106;51.468;5.814;2023-04-09T05:57:36;102136.25;;;6.53;100.00
60244;BME280;46106;51.468;5.814;2023-04-09T06:00:01;102135.41;;;6.73;100.00
60244;BME280;46106;51.468;5.814;2023-04-09T06:02:27;102121.34;;;6.84;100.00
60244;BME280;46106;51.468;5.814;2023-04-09T06:04:53;102136.50;;;7.12;100.00
60244;BME280;46106;51.468;5.814;2023-04-09T06:07:18;102141.84;;;7.34;100.00
60244;BME280;46106;51.468;5.814;2023-04-09T06:09:44;102126.97;;;7.22;100.00
60244;BME280;46106;51.468;5.814;2023-04-09T06:12:13;102141.06;;;7.32;100.00
60244;BME280;46106;51.468;5.814;2023-04-09T06:14:40;102135.38;;;7.57;100.00
60244;BME280;46106;51.468;5.814;2023-04-09T06:17:05;102140.59;;;7.62;100.00
60244;BME280;46106;51.468;5.814;2023-04-09T06:19:31;102135.91;;;7.65;100.00
60244;BME280;46106;51.468;5.814;2023-04-09T06:21:56;102147.63;;;7.67;100.00
60244;BME280;46106;51.468;5.814;2023-04-09T06:24:21;102153.78;;;7.52;100.00
60244;BME280;46106;51.468;5.814;2023-04-09T06:26:47;102151.94;;;7.32;100.00
60244;BME280;46106;51.468;5.814;2023-04-09T06:29:13;102149.34;;;7.29;100.00
60244;BME280;46106;51.468;5.814;2023-04-09T06:31:38;102170.19;;;7.50;100.00
60244;BME280;46106;51.468;5.814;2023-04-09T06:34:04;102168.91;;;7.39;100.00
60244;BME280;46106;51.468;5.814;2023-04-09T06:36:30;102145.69;;;7.30;100.00
60244;BME280;46106;51.468;5.814;2023-04-09T06:38:56;102153.81;;;7.31;100.00
60244;BME280;46106;51.468;5.814;2023-04-09T06:41:23;102170.38;;;7.46;100.00
60244;BME280;46106;51.468;5.814;2023-04-09T06:43:49;102138.31;;;7.11;100.00
60244;BME280;46106;51.468;5.814;2023-04-09T06:46:15;102149.63;;;7.23;100.00
60244;BME280;46106;51.468;5.814;2023-04-09T06:48:44;102158.94;;;7.38;100.00
60244;BME280;46106;51.468;5.814;2023-04-09T06:51:10;102163.00;;;7.49;100.00
60244;BME280;46106;51.468;5.814;2023-04-09T06:53:39;102166.63;;;7.69;100.00
60244;BME280;46106;51.468;5.814;2023-04-09T06:56:05;102171.38;;;7.84;100.00
60244;BME280;46106;51.468;5.814;2023-04-09T06:58:31;102170.03;;;7.74;100.00
60244;BME280;46106;51.468;5.814;2023-04-09T07:00:56;102175.75;;;8.07;100.00
60244;BME280;46106;51.468;5.814;2023-04-09T07:03:22;102166.25;;;8.35;100.00
60244;BME280;46106;51.468;5.814;2023-04-09T07:05:47;102166.28;;;8.72;100.00
60244;BME280;46106;51.468;5.814;2023-04-09T07:08:13;102170.97;;;8.70;100.00
60244;BME280;46106;51.468;5.814;2023-04-09T07:10:39;102171.38;;;8.79;100.00
60244;BME280;46106;51.468;5.814;2023-04-09T07:13:05;102182.91;;;9.38;100.00
60244;BME280;46106;51.468;5.814;2023-04-09T07:15:30;102140.31;;;10.01;100.00
60244;BME280;46106;51.468;5.814;2023-04-09T07:17:56;102171.88;;;10.72;100.00
60244;BME280;46106;51.468;5.814;2023-04-09T07:20:22;102179.03;;;10.91;100.00
60244;BME280;46106;51.468;5.814;2023-04-09T07:22:47;102185.44;;;10.59;100.00
60244;BME280;46106;51.468;5.814;2023-04-09T07:25:14;102187.72;;;10.83;100.00
60244;BME280;46106;51.468;5.814;2023-04-09T07:27:39;102184.63;;;11.19;100.00
60244;BME280;46106;51.468;5.814;2023-04-09T07:30:05;102176.56;;;11.47;100.00
60244;BME280;46106;51.468;5.814;2023-04-09T07:32:31;102189.19;;;11.49;100.00
60244;BME280;46106;51.468;5.814;2023-04-09T07:34:57;102189.75;;;11.85;100.00
60244;BME280;46106;51.468;5.814;2023-04-09T07:37:23;102193.09;;;11.90;100.00
60244;BME280;46106;51.468;5.814;2023-04-09T07:39:49;102199.50;;;11.90;100.00
60244;BME280;46106;51.468;5.814;2023-04-09T07:42:15;102188.50;;;11.76;100.00
60244;BME280;46106;51.468;5.814;2023-04-09T07:44:42;102183.44;;;11.99;100.00
60244;BME280;46106;51.468;5.814;2023-04-09T07:47:08;102184.19;;;12.29;100.00
60244;BME280;46106;51.468;5.814;2023-04-09T07:49:37;102180.94;;;13.06;100.00
60244;BME280;46106;51.468;5.814;2023-04-09T07:52:03;102180.47;;;13.27;100.00
60244;BME280;46106;51.468;5.814;2023-04-09T07:54:29;102182.25;;;12.17;100.00
60244;BME280;46106;51.468;5.814;2023-04-09T07:56:56;102166.94;;;11.39;100.00
60244;BME280;46106;51.468;5.814;2023-04-09T07:59:22;102185.97;;;11.43;100.00
60244;BME280;46106;51.468;5.814;2023-04-09T08:01:48;102191.97;;;11.64;100.00
60244;BME280;46106;51.468;5.814;2023-04-09T08:04:13;102174.72;;;11.47;100.00
60244;BME280;46106;51.468;5.814;2023-04-09T08:06:40;102181.63;;;11.83;100.00
60244;BME280;46106;51.468;5.814;2023-04-09T08:09:06;102192.06;;;11.92;100.00
60244;BME280;46106;51.468;5.814;2023-04-09T08:11:31;102187.66;;;12.19;100.00
60244;BME280;46106;51.468;5.814;2023-04-09T08:13:57;102185.28;;;11.98;100.00
60244;BME280;46106;51.468;5.814;2023-04-09T08:16:25;102196.56;;;12.08;100.00
60244;BME280;46106;51.468;5.814;2023-04-09T08:18:51;102190.41;;;12.19;100.00
60244;BME280;46106;51.468;5.814;2023-04-09T08:21:17;102188.06;;;12.54;100.00
60244;BME280;46106;51.468;5.814;2023-04-09T08:23:42;102175.66;;;13.03;100.00
60244;BME280;46106;51.468;5.814;2023-04-09T08:26:08;102180.78;;;13.22;100.00
60244;BME280;46106;51.468;5.814;2023-04-09T08:28:33;102177.25;;;13.60;100.00
60244;BME280;46106;51.468;5.814;2023-04-09T08:30:59;102184.59;;;14.24;100.00
60244;BME280;46106;51.468;5.814;2023-04-09T08:33:24;102183.75;;;13.97;100.00
60244;BME280;46106;51.468;5.814;2023-04-09T08:35:50;102181.03;;;14.34;100.00
60244;BME280;46106;51.468;5.814;2023-04-09T08:38:17;102181.97;;;14.96;94.32
60244;BME280;46106;51.468;5.814;2023-04-09T08:40:43;102182.06;;;15.43;91.53
60244;BME280;46106;51.468;5.814;2023-04-09T08:43:09;102175.13;;;15.73;85.97
60244;BME280;46106;51.468;5.814;2023-04-09T08:45:39;102180.34;;;14.57;95.36
60244;BME280;46106;51.468;5.814;2023-04-09T08:48:08;102176.22;;;15.23;95.95
60244;BME280;46106;51.468;5.814;2023-04-09T08:50:34;102181.53;;;15.38;94.88
60244;BME280;46106;51.468;5.814;2023-04-09T08:53:02;102172.63;;;15.10;91.05
60244;BME280;46106;51.468;5.814;2023-04-09T08:55:29;102168.78;;;15.48;88.24
60244;BME280;46106;51.468;5.814;2023-04-09T08:57:55;102172.28;;;15.86;84.92
60244;BME280;46106;51.468;5.814;2023-04-09T09:00:22;102176.06;;;16.19;80.38
60244;BME280;46106;51.468;5.814;2023-04-09T09:08:04;102159.50;;;16.07;80.21
60244;BME280;46106;51.468;5.814;2023-04-09T09:10:50;102162.13;;;15.97;81.30
60244;BME280;46106;51.468;5.814;2023-04-09T09:13:23;102158.72;;;16.28;75.40
60244;BME280;46106;51.468;5.814;2023-04-09T09:15:51;102165.16;;;16.83;75.57
60244;BME280;46106;51.468;5.814;2023-04-09T09:18:20;102162.88;;;16.22;77.01
60244;BME280;46106;51.468;5.814;2023-04-09T09:20:46;102156.00;;;16.71;71.39
60244;BME280;46106;51.468;5.814;2023-04-09T09:23:12;102158.34;;;15.76;76.32
60244;BME280;46106;51.468;5.814;2023-04-09T09:25:38;102159.09;;;15.89;77.48
60244;BME280;46106;51.468;5.814;2023-04-09T09:28:09;102150.94;;;16.10;75.46
60244;BME280;46106;51.468;5.814;2023-04-09T09:30:36;102155.31;;;17.02;67.97
60244;BME280;46106;51.468;5.814;2023-04-09T09:33:10;102161.16;;;16.76;67.61
60244;BME280;46106;51.468;5.814;2023-04-09T09:35:54;102147.31;;;16.76;68.77
60244;BME280;46106;51.468;5.814;2023-04-09T09:38:21;102135.59;;;16.17;71.31
60244;BME280;46106;51.468;5.814;2023-04-09T09:40:48;102147.22;;;17.10;67.86
60244;BME280;46106;51.468;5.814;2023-04-09T09:43:13;102135.09;;;17.64;62.76
60244;BME280;46106;51.468;5.814;2023-04-09T09:45:40;102139.59;;;17.02;64.63
60244;BME280;46106;51.468;5.814;2023-04-09T09:48:06;102138.44;;;16.61;61.96
60244;BME280;46106;51.468;5.814;2023-04-09T09:50:34;102141.25;;;16.39;61.49
60244;BME280;46106;51.468;5.814;2023-04-09T09:53:04;102142.81;;;16.64;64.21
60244;BME280;46106;51.468;5.814;2023-04-09T09:55:41;102138.38;;;15.95;63.86
60244;BME280;46106;51.468;5.814;2023-04-09T09:58:33;102134.28;;;17.11;59.43
60244;BME280;46106;51.468;5.814;2023-04-09T10:00:57;102133.50;;;16.87;58.26
60244;BME280;46106;51.468;5.814;2023-04-09T10:03:26;102134.53;;;15.62;61.80
60244;BME280;46106;51.468;5.814;2023-04-09T10:05:52;102125.84;;;15.44;61.39
60244;BME280;46106;51.468;5.814;2023-04-09T10:08:19;102131.41;;;15.09;60.61
60244;BME280;46106;51.468;5.814;2023-04-09T10:10:46;102126.53;;;14.64;61.69
60244;BME280;46106;51.468;5.814;2023-04-09T10:13:22;102122.84;;;15.47;59.33
60244;BME280;46106;51.468;5.814;2023-04-09T10:15:49;102123.34;;;16.65;59.55
60244;BME280;46106;51.468;5.814;2023-04-09T10:18:16;102122.91;;;17.25;54.78
60244;BME280;46106;51.468;5.814;2023-04-09T10:20:55;102121.31;;;17.74;53.50
60244;BME280;46106;51.468;5.814;2023-04-09T10:23:38;102123.56;;;16.73;56.92
60244;BME280;46106;51.468;5.814;2023-04-09T10:26:04;102126.56;;;16.38;58.64
60244;BME280;46106;51.468;5.814;2023-04-09T10:28:30;102119.88;;;15.73;60.40
60244;BME280;46106;51.468;5.814;2023-04-09T10:30:57;102123.22;;;15.42;58.35
60244;BME280;46106;51.468;5.814;2023-04-09T10:33:25;102109.25;;;15.91;58.46
60244;BME280;46106;51.468;5.814;2023-04-09T10:35:51;102100.66;;;16.94;55.32
60244;BME280;46106;51.468;5.814;2023-04-09T10:38:32;102105.81;;;15.65;59.42
60244;BME280;46106;51.468;5.814;2023-04-09T10:40:58;102098.47;;;15.41;59.26
60244;BME280;46106;51.468;5.814;2023-04-09T10:48:34;102101.84;;;17.01;54.97
60244;BME280;46106;51.468;5.814;2023-04-09T10:51:17;102098.00;;;17.35;51.85
60244;BME280;46106;51.468;5.814;2023-04-09T11:27:20;102065.19;;;15.89;56.42
60244;BME280;46106;51.468;5.814;2023-04-09T11:29:46;102063.53;;;15.87;56.57
60244;BME280;46106;51.468;5.814;2023-04-09T11:32:11;102053.75;;;15.83;55.88
60244;BME280;46106;51.468;5.814;2023-04-09T11:34:37;102063.38;;;15.43;56.01
60244;BME280;46106;51.468;5.814;2023-04-09T11:37:03;102057.47;;;15.25;58.54
60244;BME280;46106;51.468;5.814;2023-04-09T11:42:13;102067.16;;;15.06;59.85
60244;BME280;46106;51.468;5.814;2023-04-09T11:44:38;102067.44;;;15.15;59.75
60244;BME280;46106;51.468;5.814;2023-04-09T11:47:05;102067.31;;;15.16;60.77
60244;BME280;46106;51.468;5.814;2023-04-09T11:49:33;102065.72;;;15.14;58.91
60244;BME280;46106;51.468;5.814;2023-04-09T12:04:55;102056.09;;;15.42;60.39
60244;BME280;46106;51.468;5.814;2023-04-09T12:07:20;102043.53;;;15.38;56.90
60244;BME280;46106;51.468;5.814;2023-04-09T12:09:47;102047.56;;;15.34;59.57
60244;BME280;46106;51.468;5.814;2023-04-09T12:12:17;102051.66;;;15.17;58.06
60244;BME280;46106;51.468;5.814;2023-04-09T12:40:18;102038.00;;;16.28;59.28
60244;BME280;46106;51.468;5.814;2023-04-09T12:42:45;102038.91;;;16.61;57.28
60244;BME280;46106;51.468;5.814;2023-04-09T12:45:15;102038.16;;;16.15;58.23
60244;BME280;46106;51.468;5.814;2023-04-09T12:47:41;102039.88;;;16.60;56.01
60244;BME280;46106;51.468;5.814;2023-04-09T12:50:11;102034.31;;;16.39;55.57
60244;BME280;46106;51.468;5.814;2023-04-09T12:52:37;102037.03;;;16.50;56.78
60244;BME280;46106;51.468;5.814;2023-04-09T12:55:04;102039.31;;;15.68;57.22
60244;BME280;46106;51.468;5.814;2023-04-09T12:57:30;102033.78;;;15.68;59.24
60244;BME280;46106;51.468;5.814;2023-04-09T13:02:44;102037.78;;;16.20;54.05
60244;BME280;46106;51.468;5.814;2023-04-09T13:05:10;102041.94;;;15.80;55.64
60244;BME280;46106;51.468;5.814;2023-04-09T13:07:35;102037.69;;;15.99;56.01
60244;BME280;46106;51.468;5.814;2023-04-09T13:10:00;102029.50;;;15.97;56.46
60244;BME280;46106;51.468;5.814;2023-04-09T13:53:58;102009.31;;;15.52;54.85
60244;BME280;46106;51.468;5.814;2023-04-09T13:56:23;101997.91;;;15.79;55.19
60244;BME280;46106;51.468;5.814;2023-04-09T13:58:49;102007.28;;;15.54;56.22
60244;BME280;46106;51.468;5.814;2023-04-09T14:03:48;101989.97;;;15.74;57.39
60244;BME280;46106;51.468;5.814;2023-04-09T14:06:14;102003.63;;;15.98;56.00
60244;BME280;46106;51.468;5.814;2023-04-09T14:39:43;101964.63;;;15.58;51.77
60244;BME280;46106;51.468;5.814;2023-04-09T14:42:09;101966.88;;;15.87;53.09
60244;BME280;46106;51.468;5.814;2023-04-09T14:44:35;101951.31;;;15.63;51.24
60244;BME280;46106;51.468;5.814;2023-04-09T14:47:00;101956.31;;;15.80;53.49
60244;BME280;46106;51.468;5.814;2023-04-09T14:49:26;101955.59;;;15.78;52.21
60244;BME280;46106;51.468;5.814;2023-04-09T14:51:51;101924.19;;;15.68;52.33
60244;BME280;46106;51.468;5.814;2023-04-09T14:54:17;101957.72;;;15.86;50.25
60244;BME280;46106;51.468;5.814;2023-04-09T14:56:43;101954.19;;;15.73;49.77
60244;BME280;46106;51.468;5.814;2023-04-09T14:59:08;101951.31;;;15.74;50.45
60244;BME280;46106;51.468;5.814;2023-04-09T15:01:34;101949.19;;;15.78;50.05
60244;BME280;46106;51.468;5.814;2023-04-09T15:03:59;101934.50;;;15.66;52.42
60244;BME280;46106;51.468;5.814;2023-04-09T15:06:25;101934.63;;;15.65;50.67
60244;BME280;46106;51.468;5.814;2023-04-09T15:08:50;101944.91;;;15.62;51.35
60244;BME280;46106;51.468;5.814;2023-04-09T15:11:18;101955.47;;;15.57;50.84
60244;BME280;46106;51.468;5.814;2023-04-09T15:13:44;101952.06;;;15.88;50.68
60244;BME280;46106;51.468;5.814;2023-04-09T15:16:10;101941.75;;;15.67;50.70
60244;BME280;46106;51.468;5.814;2023-04-09T15:18:44;101936.00;;;15.70;53.18
60244;BME280;46106;51.468;5.814;2023-04-09T15:21:10;101933.84;;;15.62;52.76
60244;BME280;46106;51.468;5.814;2023-04-09T15:23:36;101930.59;;;15.57;52.42
60244;BME280;46106;51.468;5.814;2023-04-09T15:26:01;101933.72;;;15.64;53.32
60244;BME280;46106;51.468;5.814;2023-04-09T15:28:26;101915.19;;;15.55;54.04
60244;BME280;46106;51.468;5.814;2023-04-09T15:30:53;101931.41;;;15.48;51.45
60244;BME280;46106;51.468;5.814;2023-04-09T15:33:19;101929.38;;;15.39;52.00